CheckWX is a tool to help pilots better visualize weather data.  It is not intended as a substitute for an official pre-flight weather briefing.

14:29:26 UTC

FYWH METAR
Hosea Kutako International Airport
Windhoek, Namibia
Current

29 mins ago

FYWH 221400Z 29016KT 9999 FEW050 27/03 Q1019 NOSIG
Observed
Apr-22 @ 14:00 UTC
Wind
  • 290° at 16 KTS
Visibility
10,000+ meters
Flight Rules
VFR
Cloud Levels
  • Few at 5,000' AGL
Temperature
27°C / 81°F
Dewpoint
C / 37°F
Humidity
21%
Altimeter
30.09" Hg
Pressure
1018.92 hPa
Previous

1 hour ago

FYWH 221300Z 30013KT 9999 FEW050 28/02 Q1019 NOSIG
Observed
Apr-22 @ 13:00 UTC
Wind
  • 300° at 13 KTS
Visibility
10,000+ meters
Flight Rules
VFR
Cloud Levels
  • Few at 5,000' AGL
Temperature
28°C / 82°F
Dewpoint
C / 36°F
Humidity
19%
Altimeter
30.09" Hg
Pressure
1018.92 hPa
Previous

2 hours ago

FYWH 221200Z 30012KT 9999 FEW050 27/02 Q1020 NOSIG
Observed
Apr-22 @ 12:00 UTC
Wind
  • 300° at 12 KTS
Visibility
10,000+ meters
Flight Rules
VFR
Cloud Levels
  • Few at 5,000' AGL
Temperature
27°C / 81°F
Dewpoint
C / 36°F
Humidity
20%
Altimeter
30.12" Hg
Pressure
1019.92 hPa